首页
METAR-TAF:

METAR-TAF

机场 :

科尔多瓦, 阿根廷

纬度: 31-19S, 经度: 064-13W, 海拔: 484米

当前天气观测

该预报发布于43分钟前的14:00 UTC
风速4节,风向北转东北
温度 21°C
湿度 100%
气压 1020 hPa
能見度: 2000
阴天层高于400英尺
轻雾

METAR: SACO 251400Z 02004KT 2000 BR OVC004 21/21 Q1020

时间: 11:43 (14:43 UTC)

预报

该预报发布于3小时和43分钟前的11:00 UTC
预报有效从25日的 12点(UTC)到 26日的 12点(UTC)
风速5节,风向北转东北
能見度: 1000
多云层高于300英尺
阴天层高于700英尺
毛毛雨, 轻雾
几率 40% :
短暂存在
从 25日的 12点(UTC)到 25日的 14点(UTC)
风速2节,风向多变
能見度: 0400
散云层高于100英尺
阴天层高于300英尺
雾, 大毛毛雨
成为
从 25日的 14点(UTC)到 25日的 18点(UTC)
风速10节,风向东北
能見度: 5000
散云层高于800英尺
毛毛雨, 轻雾
成为
从 25日的 16点(UTC)到 25日的 20点(UTC)
风速10节,风向北转东北
能见度10公里或以上
多云层高于2000英尺

TAF: SACO 251100Z 2512/2612 02005KT 1000 DZ BR BKN003 OVC007 TX22/2519Z TN17/2610Z PROB40 TEMPO 2512/2514 VRB02KT 0400 FG +DZ SCT001 OVC003 BECMG 2514/2518 05010KT 5000 DZ BR SCT008 BKN15 BECMG 2516/2520 02010KT 9999 BKN020

超过4000个机场的气象观测和天气预报(METAR&TAF报告)。

可查询的气象台以黄色和红色小点在地图上表示。

将鼠标移到小点上方,可查看气象台名称。

然后点击查看天气观测和预报。

如需切换地图:点击带黑十字的绿色按钮放大地图;点击带横线的绿色按钮缩小地图;或者点击绿色箭头查看邻近地区的地图。


METAR-TAF: